Time;durP1;ratioP1;P1;durP2;ratioP2;P2;SDS_P1;SDS_P2;PMS_P1;PMS_P2;Temp;Humidity;BMP_temperature;BMP_pressure;BME280_temperature;BME280_humidity;BME280_pressure;Samples;Min_cycle;Max_cycle;Signal;HPM_P1;HPM_P2
2022/03/06 00:00:07;;;;;;;5.07;3.72;;;12.40;60.00;;;;;;5072455;28;20061;-73
2022/03/06 00:02:33;;;;;;;7.97;3.47;;;12.40;60.00;;;;;;5073226;28;20044;-72
2022/03/06 00:04:58;;;;;;;5.75;3.63;;;12.40;59.90;;;;;;5076509;28;20055;-74
2022/03/06 00:07:24;;;;;;;6.07;3.65;;;12.40;59.70;;;;;;5076003;28;20045;-73
2022/03/06 00:09:50;;;;;;;5.38;4.03;;;12.30;59.60;;;;;;5076111;28;20040;-74
2022/03/06 00:12:15;;;;;;;6.25;4.00;;;12.10;58.90;;;;;;5076617;28;20123;-73
2022/03/06 00:14:41;;;;;;;5.45;3.78;;;12.10;59.20;;;;;;5076210;28;20466;-73
2022/03/06 00:17:07;;;;;;;6.03;4.00;;;11.90;59.00;;;;;;5076416;28;20048;-74
2022/03/06 00:19:32;;;;;;;6.03;3.65;;;11.80;59.00;;;;;;5076140;28;20454;-73
2022/03/06 00:21:58;;;;;;;5.63;4.15;;;11.70;58.90;;;;;;5076639;28;20041;-74
2022/03/06 00:24:24;;;;;;;6.13;4.07;;;11.80;59.30;;;;;;5075859;28;20091;-73
2022/03/06 00:26:49;;;;;;;5.60;4.22;;;11.80;59.00;;;;;;5076602;28;20040;-73
2022/03/06 00:29:15;;;;;;;5.57;4.28;;;11.70;58.50;;;;;;5076115;28;20060;-73
2022/03/06 00:31:41;;;;;;;7.10;3.83;;;11.70;59.10;;;;;;5075215;28;20527;-73
2022/03/06 00:34:07;;;;;;;6.35;4.43;;;11.60;58.70;;;;;;5075700;28;20040;-73
2022/03/06 00:36:33;;;;;;;7.72;4.40;;;11.50;58.20;;;;;;5076199;28;20071;-73
2022/03/06 00:38:59;;;;;;;5.85;4.10;;;11.50;58.30;;;;;;5057704;28;20049;-73
2022/03/06 00:41:24;;;;;;;4.68;4.07;;;11.50;58.50;;;;;;5076058;28;20048;-73
2022/03/06 00:43:50;;;;;;;4.82;4.18;;;11.50;58.80;;;;;;5075639;28;20410;-73
2022/03/06 00:46:16;;;;;;;5.15;4.65;;;11.50;58.60;;;;;;5075987;28;20056;-73
2022/03/06 00:48:41;;;;;;;5.47;4.22;;;11.50;58.20;;;;;;5075290;28;20044;-73
2022/03/06 00:51:07;;;;;;;5.88;4.03;;;11.40;58.40;;;;;;5075828;28;20467;-73
2022/03/06 00:53:33;;;;;;;5.00;4.50;;;11.50;58.60;;;;;;5074925;28;20055;-73
2022/03/06 00:55:58;;;;;;;5.82;4.38;;;11.40;57.90;;;;;;5057563;28;20048;-73
2022/03/06 00:58:24;;;;;;;5.68;4.78;;;11.40;57.90;;;;;;5075698;28;20059;-72
2022/03/06 01:00:50;;;;;;;5.38;4.18;;;11.40;57.80;;;;;;5075730;28;20102;-71
2022/03/06 01:03:21;;;;;;;5.82;4.90;;;11.50;58.20;;;;;;5053254;28;20087;-73
2022/03/06 01:05:47;;;;;;;5.25;4.72;;;11.50;57.90;;;;;;5055639;28;20045;-73
2022/03/06 01:08:13;;;;;;;5.13;4.55;;;11.50;57.70;;;;;;5055160;28;20049;-73
2022/03/06 01:10:41;;;;;;;7.05;4.93;;;11.60;57.50;;;;;;5037712;28;20041;-73
2022/03/06 01:13:08;;;;;;;7.03;4.53;;;11.50;57.70;;;;;;5055422;28;20136;-72
2022/03/06 01:15:35;;;;;;;5.43;4.50;;;11.50;57.80;;;;;;5055880;28;20432;-73
2022/03/06 01:18:01;;;;;;;8.20;4.82;;;11.50;57.70;;;;;;5054784;28;20049;-73
2022/03/06 01:20:27;;;;;;;5.97;4.70;;;11.40;57.70;;;;;;5055286;28;20048;-72
2022/03/06 01:22:53;;;;;;;5.20;4.70;;;11.50;57.80;;;;;;5055255;28;20049;-73
2022/03/06 01:25:20;;;;;;;5.20;4.30;;;11.50;57.80;;;;;;5055307;28;20403;-73
2022/03/06 01:27:47;;;;;;;5.28;4.35;;;11.50;57.80;;;;;;5055308;28;20381;-73
2022/03/06 01:30:15;;;;;;;6.97;4.75;;;11.50;57.70;;;;;;5037666;28;20081;-72
2022/03/06 01:32:41;;;;;;;6.03;4.97;;;11.60;57.50;;;;;;5054976;28;20060;-73
2022/03/06 01:35:08;;;;;;;7.25;4.78;;;11.60;57.60;;;;;;5038145;28;20067;-72
2022/03/06 01:37:33;;;;;;;6.43;4.35;;;11.60;57.30;;;;;;5055010;28;20096;-72
2022/03/06 01:39:59;;;;;;;6.20;5.20;;;11.60;57.50;;;;;;5055160;28;20460;-72
2022/03/06 01:42:25;;;;;;;5.30;4.53;;;11.60;57.50;;;;;;5037799;28;20356;-72
2022/03/06 01:44:51;;;;;;;5.47;4.70;;;11.60;57.50;;;;;;5036726;28;20055;-73
2022/03/06 01:47:41;;;;;;;6.30;4.53;;;11.60;57.60;;;;;;5055024;28;20053;-72
2022/03/06 01:50:14;;;;;;;5.53;4.85;;;11.70;57.30;;;;;;5054839;28;20103;-72
2022/03/06 01:52:41;;;;;;;6.73;5.00;;;11.70;57.50;;;;;;5054998;28;20139;-73
2022/03/06 01:55:08;;;;;;;5.25;4.75;;;11.60;57.10;;;;;;5054826;28;20132;-72
2022/03/06 01:57:34;;;;;;;6.30;5.22;;;11.60;57.30;;;;;;5054760;28;20044;-72
2022/03/06 02:00:04;;;;;;;6.65;4.78;;;11.60;57.40;;;;;;5055208;28;20057;-73
2022/03/06 02:02:29;;;;;;;9.18;5.28;;;11.60;57.30;;;;;;5046011;28;20056;-71
2022/03/06 02:04:55;;;;;;;7.18;4.75;;;11.60;57.30;;;;;;5074775;28;20037;-73
2022/03/06 02:07:21;;;;;;;5.32;4.50;;;11.60;57.40;;;;;;5074661;28;20076;-72
2022/03/06 02:09:47;;;;;;;6.45;5.35;;;11.60;57.50;;;;;;5074850;28;20416;-73
2022/03/06 02:12:24;;;;;;;7.13;4.45;;;11.60;57.40;;;;;;5074877;28;20044;-72
2022/03/06 02:14:56;;;;;;;6.80;4.93;;;11.60;57.50;;;;;;5056989;28;20049;-73
2022/03/06 02:17:22;;;;;;;5.53;5.00;;;11.60;57.00;;;;;;5074969;28;20371;-72
2022/03/06 02:19:57;;;;;;;5.65;4.90;;;11.60;57.00;;;;;;5074696;28;20113;-72
2022/03/06 02:22:25;;;;;;;6.38;4.93;;;11.50;56.80;;;;;;5074551;28;20071;-73
2022/03/06 02:24:51;;;;;;;5.53;4.55;;;11.50;57.00;;;;;;5074319;28;20419;-72
2022/03/06 02:27:17;;;;;;;5.45;4.80;;;11.60;57.20;;;;;;5057149;28;20084;-73
2022/03/06 02:29:43;;;;;;;5.78;5.00;;;11.50;57.20;;;;;;5078557;28;20198;-72
2022/03/06 02:32:11;;;;;;;8.38;5.40;;;11.50;57.10;;;;;;5072502;28;20044;-73
2022/03/06 02:34:38;;;;;;;5.85;5.20;;;11.50;57.00;;;;;;5058157;28;20444;-72
2022/03/06 02:37:04;;;;;;;8.63;4.57;;;11.40;56.70;;;;;;5058586;28;20065;-73
2022/03/06 02:39:30;;;;;;;5.93;4.32;;;11.50;56.90;;;;;;5040180;28;20049;-73
2022/03/06 02:41:56;;;;;;;7.97;4.47;;;11.50;57.30;;;;;;5041217;28;20142;-72
2022/03/06 02:44:21;;;;;;;8.15;4.50;;;11.40;57.20;;;;;;5058196;28;20041;-71
2022/03/06 02:46:48;;;;;;;6.20;4.55;;;11.40;57.30;;;;;;5074081;28;20079;-72
2022/03/06 02:49:16;;;;;;;6.70;5.28;;;11.40;57.30;;;;;;5058098;28;20155;-73
2022/03/06 02:51:43;;;;;;;6.35;4.45;;;11.30;57.30;;;;;;5057755;28;20103;-72
2022/03/06 02:54:10;;;;;;;8.15;4.90;;;11.30;57.40;;;;;;5058683;28;20040;-71
2022/03/06 02:56:36;;;;;;;5.25;4.70;;;11.20;57.70;;;;;;5040024;28;20049;-73
2022/03/06 02:59:03;;;;;;;5.53;4.28;;;11.30;57.70;;;;;;5058012;28;20052;-73
2022/03/06 03:01:29;;;;;;;5.75;4.53;;;11.30;57.50;;;;;;5040334;28;20045;-73
2022/03/06 03:03:55;;;;;;;6.72;4.22;;;11.30;57.20;;;;;;5058067;28;20060;-73
2022/03/06 03:06:21;;;;;;;5.90;4.45;;;11.20;57.00;;;;;;5057641;28;20143;-73
2022/03/06 03:08:47;;;;;;;4.93;4.22;;;11.20;57.10;;;;;;5057696;28;20075;-72
2022/03/06 03:11:13;;;;;;;4.22;3.80;;;11.10;57.20;;;;;;5057306;28;20040;-72
2022/03/06 03:13:39;;;;;;;5.47;4.50;;;11.20;57.30;;;;;;5073161;28;20176;-72
2022/03/06 03:16:06;;;;;;;6.18;4.13;;;11.10;57.30;;;;;;5057479;28;20135;-72
2022/03/06 03:18:32;;;;;;;7.85;4.47;;;11.10;57.20;;;;;;5073285;28;20049;-72
2022/03/06 03:20:58;;;;;;;6.90;3.90;;;11.10;57.40;;;;;;5057478;28;20059;-72
2022/03/06 03:23:23;;;;;;;6.03;3.35;;;11.10;57.20;;;;;;5057198;28;20044;-71
2022/03/06 03:25:49;;;;;;;4.75;3.28;;;11.10;57.50;;;;;;5057159;28;20048;-73
2022/03/06 03:28:15;;;;;;;6.55;3.70;;;11.20;57.60;;;;;;5073258;28;20104;-72
2022/03/06 03:30:40;;;;;;;4.55;3.47;;;11.20;57.20;;;;;;5057263;28;20084;-73
2022/03/06 03:33:06;;;;;;;5.50;3.85;;;11.10;57.00;;;;;;5057307;28;20045;-72
2022/03/06 03:35:32;;;;;;;5.15;3.35;;;11.10;57.10;;;;;;5039389;28;20049;-71
2022/03/06 03:37:58;;;;;;;6.45;3.03;;;11.10;57.30;;;;;;5056414;28;20045;-73
2022/03/06 03:40:23;;;;;;;4.93;3.30;;;11.10;57.20;;;;;;5039398;28;20085;-73
2022/03/06 03:42:49;;;;;;;4.30;2.72;;;11.00;57.30;;;;;;5056930;28;20056;-73
2022/03/06 03:45:15;;;;;;;5.05;3.17;;;11.00;57.30;;;;;;5057279;28;20052;-73
2022/03/06 03:47:41;;;;;;;4.15;3.33;;;11.00;57.20;;;;;;5057538;28;20041;-71
2022/03/06 03:50:07;;;;;;;5.32;3.05;;;11.00;57.20;;;;;;5056918;28;20052;-73
2022/03/06 03:52:33;;;;;;;5.97;3.20;;;11.00;57.30;;;;;;5056586;28;20056;-73
2022/03/06 03:54:59;;;;;;;4.40;3.00;;;11.00;57.30;;;;;;5039403;28;20409;-73
2022/03/06 03:57:25;;;;;;;7.00;4.05;;;11.00;57.30;;;;;;5056351;28;20128;-73
2022/03/06 03:59:51;;;;;;;4.68;3.10;;;11.00;57.10;;;;;;5056697;28;20084;-72
2022/03/06 04:02:17;;;;;;;3.65;2.75;;;11.00;57.30;;;;;;5056324;28;20052;-71
2022/03/06 04:04:42;;;;;;;5.53;3.15;;;11.00;57.30;;;;;;5055925;28;20041;-72
2022/03/06 04:07:08;;;;;;;4.28;3.00;;;11.00;57.10;;;;;;5056611;28;20463;-72
2022/03/06 04:09:34;;;;;;;5.13;2.92;;;11.00;56.80;;;;;;5056222;28;20131;-72
2022/03/06 04:12:00;;;;;;;5.32;3.10;;;11.00;56.80;;;;;;5056659;28;20128;-72
2022/03/06 04:14:26;;;;;;;5.68;2.92;;;10.90;56.80;;;;;;5056494;28;20498;-73
2022/03/06 04:16:51;;;;;;;5.57;3.00;;;11.00;57.00;;;;;;5038862;28;20147;-72
2022/03/06 04:19:17;;;;;;;3.75;2.60;;;10.90;56.80;;;;;;5056405;28;20049;-73
2022/03/06 04:21:43;;;;;;;4.50;2.70;;;11.00;56.20;;;;;;5038674;28;20053;-72
2022/03/06 04:24:09;;;;;;;5.25;2.63;;;10.90;55.60;;;;;;5039020;28;20060;-72
2022/03/06 04:26:35;;;;;;;4.68;2.63;;;10.90;55.60;;;;;;5038808;28;20048;-72
2022/03/06 04:29:02;;;;;;;3.65;2.00;;;10.90;55.80;;;;;;5056425;28;20356;-72
2022/03/06 04:31:28;;;;;;;5.53;2.70;;;10.80;56.00;;;;;;5038500;28;20044;-72
2022/03/06 04:33:54;;;;;;;5.40;2.45;;;10.80;56.10;;;;;;5055529;28;20052;-72
2022/03/06 04:36:20;;;;;;;4.38;2.00;;;10.90;56.50;;;;;;5038144;28;20124;-72
2022/03/06 04:38:46;;;;;;;3.35;2.35;;;10.90;56.70;;;;;;5037920;28;20417;-73
2022/03/06 04:41:11;;;;;;;5.07;2.65;;;11.00;56.40;;;;;;5056403;28;20048;-73
2022/03/06 04:43:37;;;;;;;4.80;2.50;;;11.00;56.50;;;;;;5038311;28;20045;-72
2022/03/06 04:46:03;;;;;;;2.92;2.10;;;11.00;56.40;;;;;;5055569;28;20060;-73
2022/03/06 04:48:29;;;;;;;4.75;2.33;;;10.90;56.30;;;;;;5056144;28;20041;-73
2022/03/06 04:50:55;;;;;;;3.20;2.40;;;11.00;56.60;;;;;;5038151;28;20160;-72
2022/03/06 04:53:21;;;;;;;3.55;2.40;;;11.00;56.40;;;;;;5055490;28;20114;-73
2022/03/06 04:55:47;;;;;;;4.32;2.30;;;10.90;56.40;;;;;;5055512;28;20045;-73
2022/03/06 04:58:13;;;;;;;3.30;2.03;;;10.90;56.40;;;;;;5055771;28;20037;-73
2022/03/06 05:00:39;;;;;;;3.47;2.22;;;10.90;56.50;;;;;;5055477;28;20052;-73
2022/03/06 05:03:04;;;;;;;3.38;2.15;;;10.90;56.40;;;;;;5065483;28;20513;-74
2022/03/06 05:05:31;;;;;;;7.22;2.67;;;10.90;56.50;;;;;;5075384;28;20062;-72
2022/03/06 05:07:56;;;;;;;3.00;1.90;;;10.90;57.10;;;;;;5075670;28;20127;-72
2022/03/06 05:10:22;;;;;;;4.32;2.35;;;10.90;56.70;;;;;;5075168;28;20123;-72
2022/03/06 05:12:48;;;;;;;4.28;2.25;;;10.80;56.40;;;;;;5071513;28;20048;-72
2022/03/06 05:15:14;;;;;;;5.85;2.53;;;10.80;56.60;;;;;;5075599;28;20045;-73
2022/03/06 05:17:40;;;;;;;5.43;2.63;;;10.80;56.60;;;;;;5075446;28;20395;-73
2022/03/06 05:20:08;;;;;;;3.55;2.40;;;10.80;56.50;;;;;;5075117;28;20099;-72
2022/03/06 05:22:34;;;;;;;3.47;1.95;;;10.80;56.50;;;;;;5074996;28;20091;-72
2022/03/06 05:25:00;;;;;;;3.45;1.80;;;10.80;56.60;;;;;;5075209;28;20067;-73
2022/03/06 05:27:27;;;;;;;2.70;1.70;;;10.80;56.70;;;;;;5057740;28;20452;-72
2022/03/06 05:29:52;;;;;;;3.38;2.22;;;10.80;56.70;;;;;;5057760;28;20048;-72
2022/03/06 05:32:18;;;;;;;3.25;2.10;;;10.80;56.40;;;;;;5074851;28;20036;-73
2022/03/06 05:34:44;;;;;;;4.47;1.67;;;10.70;56.20;;;;;;5056190;28;20083;-72
2022/03/06 05:37:10;;;;;;;8.60;1.80;;;10.80;56.60;;;;;;5074889;28;20125;-78
2022/03/06 05:39:36;;;;;;;7.35;2.65;;;10.90;57.30;;;;;;5056051;28;20471;-81
2022/03/06 05:42:02;;;;;;;11.77;2.00;;;11.00;57.00;;;;;;5050988;28;20110;-76
2022/03/06 05:44:28;;;;;;;3.63;1.48;;;11.10;56.10;;;;;;5037141;28;20099;-79
2022/03/06 05:46:54;;;;;;;5.57;1.73;;;11.30;55.40;;;;;;5053535;28;20045;-80
2022/03/06 05:49:19;;;;;;;5.80;1.63;;;11.40;54.80;;;;;;5053733;28;20045;-75
2022/03/06 05:51:45;;;;;;;4.88;1.48;;;11.40;53.80;;;;;;5055299;28;20041;-77
2022/03/06 05:54:11;;;;;;;4.55;1.40;;;11.40;53.60;;;;;;5037268;28;20338;-77
2022/03/06 05:56:39;;;;;;;3.70;1.60;;;11.50;53.80;;;;;;5055496;28;20111;-75
2022/03/06 05:59:05;;;;;;;3.92;1.48;;;11.60;54.30;;;;;;5054557;28;20514;-74
2022/03/06 06:01:32;;;;;;;3.35;1.42;;;11.60;54.60;;;;;;5054926;28;20103;-79
2022/03/06 06:03:59;;;;;;;5.80;1.27;;;11.70;54.80;;;;;;5039570;28;20360;-82
2022/03/06 06:06:25;;;;;;;5.97;1.00;;;11.80;55.10;;;;;;5041393;28;20152;-75
2022/03/06 06:08:51;;;;;;;4.35;0.98;;;12.00;55.40;;;;;;5058858;28;20345;-76
2022/03/06 06:11:18;;;;;;;2.67;1.30;;;12.10;55.40;;;;;;5058573;28;20244;-78
2022/03/06 06:13:44;;;;;;;7.22;1.30;;;12.30;55.60;;;;;;5058431;28;20049;-77
2022/03/06 06:16:10;;;;;;;4.88;0.63;;;12.50;55.70;;;;;;5059121;28;20087;-80
2022/03/06 06:18:36;;;;;;;2.47;0.55;;;12.60;55.20;;;;;;5058815;28;20408;-79
2022/03/06 06:21:02;;;;;;;2.53;0.65;;;12.80;55.20;;;;;;5040705;28;20053;-79
2022/03/06 06:23:28;;;;;;;5.70;0.52;;;12.90;55.00;;;;;;5058122;28;20088;-82
2022/03/06 06:25:53;;;;;;;2.47;0.75;;;13.10;54.80;;;;;;5024251;28;20076;-80
2022/03/06 06:28:19;;;;;;;3.65;0.57;;;13.20;54.70;;;;;;5040627;28;20438;-74
2022/03/06 06:30:45;;;;;;;4.82;0.88;;;13.40;54.70;;;;;;5053614;28;20044;-73
2022/03/06 06:33:11;;;;;;;3.33;0.77;;;13.50;54.80;;;;;;5078122;28;20056;-76
2022/03/06 06:35:37;;;;;;;2.28;0.45;;;13.60;54.80;;;;;;5060967;28;20375;-74
2022/03/06 06:38:04;;;;;;;6.75;0.77;;;13.70;54.60;;;;;;5077900;28;20467;-74
2022/03/06 06:40:30;;;;;;;5.30;0.93;;;13.80;54.60;;;;;;5061129;28;20376;-72
2022/03/06 06:42:56;;;;;;;5.72;0.80;;;14.00;54.60;;;;;;5078105;28;20065;-73
2022/03/06 06:45:22;;;;;;;4.70;0.45;;;14.10;54.60;;;;;;5078174;28;20040;-74
2022/03/06 06:47:47;;;;;;;2.35;0.45;;;14.20;54.60;;;;;;5077554;28;20069;-75
2022/03/06 06:50:14;;;;;;;2.97;0.93;;;14.20;53.90;;;;;;5060485;28;20052;-74
2022/03/06 06:52:39;;;;;;;3.95;0.60;;;14.40;53.80;;;;;;5056493;28;20067;-77
2022/03/06 06:55:06;;;;;;;3.10;0.70;;;14.60;53.10;;;;;;5040432;28;20087;-73
2022/03/06 06:57:35;;;;;;;2.70;0.50;;;14.80;52.80;;;;;;5057821;28;20071;-74
2022/03/06 07:00:02;;;;;;;4.55;0.75;;;14.90;52.70;;;;;;5057631;28;20041;-76
2022/03/06 07:02:28;;;;;;;5.72;0.82;;;15.00;52.90;;;;;;5041077;28;20052;-73
2022/03/06 07:04:53;;;;;;;3.28;0.32;;;15.10;53.00;;;;;;5057579;28;20357;-77
2022/03/06 07:07:19;;;;;;;3.80;0.60;;;15.10;52.30;;;;;;5058008;28;20379;-73
2022/03/06 07:09:45;;;;;;;4.65;0.68;;;15.20;52.00;;;;;;5057537;28;20040;-75
2022/03/06 07:12:11;;;;;;;5.72;1.23;;;15.30;51.60;;;;;;5057712;28;20049;-75
2022/03/06 07:14:37;;;;;;;3.42;0.68;;;15.40;51.20;;;;;;5056383;28;20048;-76
2022/03/06 07:17:03;;;;;;;4.78;0.80;;;15.50;50.60;;;;;;5057863;28;20411;-75
2022/03/06 07:19:29;;;;;;;3.67;0.75;;;15.60;50.70;;;;;;5056787;28;20045;-75
2022/03/06 07:21:55;;;;;;;7.55;0.82;;;15.70;50.80;;;;;;5057282;28;20432;-75
2022/03/06 07:24:21;;;;;;;2.00;0.40;;;15.60;50.40;;;;;;5057130;28;20108;-75
2022/03/06 07:26:46;;;;;;;7.80;0.90;;;15.80;50.80;;;;;;5058405;28;20045;-75
2022/03/06 07:29:12;;;;;;;3.20;0.60;;;15.80;51.10;;;;;;5055388;28;20084;-78
2022/03/06 07:31:38;;;;;;;12.40;0.70;;;15.80;51.40;;;;;;5077310;28;20054;-74
2022/03/06 07:34:04;;;;;;;7.30;0.68;;;15.90;51.60;;;;;;5059869;28;20056;-73
2022/03/06 07:36:29;;;;;;;6.63;0.90;;;16.00;51.80;;;;;;5077362;28;20431;-74
2022/03/06 07:38:55;;;;;;;3.45;0.40;;;16.10;51.90;;;;;;5077034;28;20460;-74
2022/03/06 07:41:21;;;;;;;4.15;0.88;;;16.10;52.10;;;;;;5077204;28;20428;-74
2022/03/06 07:43:46;;;;;;;5.93;0.90;;;16.20;52.30;;;;;;5077033;28;20450;-73
2022/03/06 07:46:12;;;;;;;2.10;0.45;;;16.20;52.40;;;;;;5076777;28;20518;-74
2022/03/06 07:48:38;;;;;;;4.53;0.65;;;16.20;52.50;;;;;;5076566;28;20083;-73
2022/03/06 07:51:04;;;;;;;6.07;0.88;;;16.30;52.60;;;;;;5077029;28;20056;-75
2022/03/06 07:53:30;;;;;;;6.78;0.50;;;16.30;52.70;;;;;;5077182;28;20123;-75
2022/03/06 07:55:55;;;;;;;4.70;0.65;;;16.40;52.70;;;;;;5076868;28;20539;-75
2022/03/06 07:58:21;;;;;;;2.20;0.40;;;16.50;52.70;;;;;;5069063;28;20047;-77
2022/03/06 08:00:47;;;;;;;2.55;0.38;;;16.50;52.50;;;;;;5056312;28;20137;-78
2022/03/06 08:03:13;;;;;;;4.55;0.60;;;16.50;52.50;;;;;;5038947;28;20136;-77
2022/03/06 08:05:39;;;;;;;7.78;0.65;;;16.50;52.60;;;;;;5064507;28;20037;-74
2022/03/06 08:08:05;;;;;;;13.13;0.98;;;16.60;52.90;;;;;;5071088;28;20033;-76
2022/03/06 08:10:31;;;;;;;11.00;0.90;;;16.60;53.10;;;;;;5074633;28;20052;-76
2022/03/06 08:12:56;;;;;;;5.80;0.98;;;16.70;53.20;;;;;;5058374;28;20052;-77
2022/03/06 08:15:23;;;;;;;4.38;0.75;;;16.70;53.00;;;;;;5050804;28;20044;-76
2022/03/06 08:17:48;;;;;;;7.78;0.90;;;16.70;53.00;;;;;;5045001;28;20060;-78
2022/03/06 08:20:14;;;;;;;5.53;0.60;;;16.80;53.00;;;;;;5049332;28;20041;-77
2022/03/06 08:22:40;;;;;;;6.68;0.60;;;16.80;53.00;;;;;;5055701;28;20134;-75
2022/03/06 08:25:07;;;;;;;11.38;1.00;;;16.80;52.90;;;;;;5038759;28;20136;-76
2022/03/06 08:27:33;;;;;;;9.02;1.15;;;16.80;53.10;;;;;;5072920;28;20052;-77
2022/03/06 08:29:59;;;;;;;5.22;0.55;;;16.70;53.40;;;;;;5092984;28;20119;-77
2022/03/06 08:32:25;;;;;;;7.85;0.57;;;16.70;53.30;;;;;;5080537;28;20064;-74
2022/03/06 08:34:51;;;;;;;4.05;0.93;;;16.80;53.30;;;;;;5065549;28;20029;-78
2022/03/06 08:37:18;;;;;;;5.20;0.85;;;16.80;53.20;;;;;;5058380;28;20058;-73
2022/03/06 08:39:46;;;;;;;5.00;0.60;;;16.80;52.70;;;;;;5058097;28;20049;-77
2022/03/06 08:42:12;;;;;;;10.70;1.05;;;16.80;52.50;;;;;;5058313;28;20102;-73
2022/03/06 08:44:37;;;;;;;3.92;0.52;;;16.80;52.50;;;;;;5077455;28;20047;-76
2022/03/06 08:47:04;;;;;;;6.15;0.60;;;16.80;52.50;;;;;;5066650;28;20045;-77
2022/03/06 08:49:29;;;;;;;4.50;0.82;;;16.80;52.50;;;;;;5038360;28;20049;-74
2022/03/06 08:51:55;;;;;;;13.57;1.13;;;16.90;52.60;;;;;;5038533;28;20045;-74
2022/03/06 08:54:21;;;;;;;7.20;0.98;;;16.80;52.60;;;;;;5055524;28;20044;-77
2022/03/06 08:56:47;;;;;;;4.68;0.60;;;16.80;52.80;;;;;;5055322;28;20059;-72
2022/03/06 08:59:12;;;;;;;7.93;0.73;;;16.80;53.00;;;;;;5037730;28;20057;-74
2022/03/06 09:01:38;;;;;;;4.93;0.50;;;16.70;53.20;;;;;;5055663;28;20044;-74
2022/03/06 09:04:05;;;;;;;7.00;0.57;;;16.60;53.40;;;;;;5055477;28;20045;-73
2022/03/06 09:06:30;;;;;;;4.47;0.40;;;16.60;53.70;;;;;;5055779;28;20041;-72
2022/03/06 09:08:56;;;;;;;5.82;0.73;;;16.60;54.00;;;;;;5064480;28;20379;-75
2022/03/06 09:11:22;;;;;;;1.63;0.40;;;16.50;54.00;;;;;;5074890;28;20052;-73
2022/03/06 09:13:48;;;;;;;4.82;0.60;;;16.50;54.00;;;;;;5056506;28;20111;-74
2022/03/06 09:16:14;;;;;;;5.63;0.43;;;16.50;54.20;;;;;;5057118;28;20452;-72
2022/03/06 09:18:40;;;;;;;5.80;0.77;;;16.50;54.40;;;;;;5074701;28;20083;-76
2022/03/06 09:21:06;;;;;;;8.32;0.85;;;16.50;54.80;;;;;;5066921;28;20044;-74
2022/03/06 09:23:32;;;;;;;7.32;0.82;;;16.50;54.50;;;;;;5085570;28;20046;-75
2022/03/06 09:25:57;;;;;;;5.13;0.70;;;16.50;52.60;;;;;;5052840;28;20048;-74
2022/03/06 09:28:23;;;;;;;3.50;0.63;;;16.50;51.80;;;;;;5075342;28;20041;-75
2022/03/06 09:30:49;;;;;;;5.88;1.52;;;16.50;51.70;;;;;;5071236;28;20487;-74
2022/03/06 09:33:18;;;;;;;8.25;1.30;;;16.50;52.60;;;;;;5057506;28;20134;-86
2022/03/06 09:35:43;;;;;;;4.57;0.95;;;16.50;53.80;;;;;;5057144;28;20165;-74
2022/03/06 09:38:09;;;;;;;5.43;0.70;;;16.50;53.50;;;;;;5074337;28;20143;-74
2022/03/06 09:40:35;;;;;;;4.68;0.77;;;16.50;53.60;;;;;;5074920;28;20157;-75
2022/03/06 09:43:01;;;;;;;4.47;0.68;;;16.50;53.80;;;;;;5075297;28;20459;-74
2022/03/06 09:45:29;;;;;;;4.03;0.75;;;16.50;53.80;;;;;;5075236;28;20076;-74
2022/03/06 09:47:58;;;;;;;7.25;0.80;;;16.50;54.20;;;;;;5057681;28;20059;-71
2022/03/06 09:50:24;;;;;;;6.32;0.98;;;16.50;54.50;;;;;;5074718;28;20058;-72
2022/03/06 09:52:49;;;;;;;5.57;1.15;;;16.50;55.70;;;;;;5057491;28;20053;-77
2022/03/06 09:55:15;;;;;;;2.70;0.77;;;16.50;56.10;;;;;;5071399;28;20091;-71
2022/03/06 09:57:41;;;;;;;4.75;0.80;;;16.50;55.80;;;;;;5057335;28;20045;-71
2022/03/06 10:00:09;;;;;;;5.68;0.60;;;16.50;55.30;;;;;;5074615;28;20044;-71
2022/03/06 10:02:55;;;;;;;5.28;0.80;;;16.50;54.90;;;;;;5074308;28;20051;-71
2022/03/06 10:05:35;;;;;;;5.18;0.88;;;16.40;54.60;;;;;;5074160;28;20036;-71
2022/03/06 10:08:26;;;;;;;3.03;0.50;;;16.40;54.80;;;;;;5073669;28;20067;-71
2022/03/06 10:11:01;;;;;;;13.15;1.17;;;16.40;55.10;;;;;;5053885;28;20455;-70
2022/03/06 10:13:35;;;;;;;7.97;0.90;;;16.30;55.00;;;;;;5054554;28;20059;-76
2022/03/06 10:16:18;;;;;;;10.93;1.33;;;16.30;55.60;;;;;;5053887;28;20045;-72
2022/03/06 10:18:54;;;;;;;13.25;1.45;;;16.20;55.90;;;;;;5054184;28;20448;-71
2022/03/06 10:21:29;;;;;;;9.57;1.60;;;16.30;56.30;;;;;;5076588;28;20048;-71
2022/03/06 10:24:00;;;;;;;14.68;2.03;;;16.20;56.50;;;;;;5073913;28;20044;-77
2022/03/06 10:26:30;;;;;;;19.15;2.00;;;16.20;56.60;;;;;;5074295;28;20044;-72
2022/03/06 10:29:02;;;;;;;17.15;1.92;;;16.20;57.00;;;;;;5074470;28;20348;-73
2022/03/06 10:31:33;;;;;;;10.13;1.25;;;16.20;57.50;;;;;;5072922;28;20047;-73
2022/03/06 10:34:04;;;;;;;12.23;1.80;;;16.10;56.90;;;;;;5071747;28;20045;-70
2022/03/06 10:36:37;;;;;;;7.30;1.20;;;16.10;56.80;;;;;;5065658;28;20491;-72
2022/03/06 10:39:15;;;;;;;10.63;1.45;;;16.00;56.40;;;;;;5054053;28;20139;-71
2022/03/06 10:41:47;;;;;;;17.67;1.50;;;15.90;56.30;;;;;;5054765;28;20484;-71
2022/03/06 10:44:13;;;;;;;10.95;1.60;;;15.90;55.30;;;;;;5054225;28;20444;-71
2022/03/06 10:46:40;;;;;;;11.57;1.25;;;15.90;55.40;;;;;;5054556;28;20086;-71
2022/03/06 10:49:17;;;;;;;12.10;1.35;;;15.90;55.30;;;;;;5054417;28;20049;-71
2022/03/06 10:51:50;;;;;;;9.95;1.38;;;15.80;55.10;;;;;;5057402;28;20463;-70
2022/03/06 10:54:16;;;;;;;6.78;1.08;;;15.80;55.30;;;;;;5055028;28;20143;-70
2022/03/06 10:56:50;;;;;;;7.72;1.20;;;15.80;55.30;;;;;;5057813;28;20080;-69
2022/03/06 10:59:21;;;;;;;9.32;0.98;;;15.80;55.30;;;;;;5073725;28;20364;-70
2022/03/06 11:01:49;;;;;;;7.10;1.20;;;15.80;55.30;;;;;;5057574;28;20600;-71
2022/03/06 11:04:20;;;;;;;8.77;0.90;;;15.80;55.30;;;;;;5040319;28;20448;-71
2022/03/06 11:06:49;;;;;;;9.15;1.08;;;15.80;55.20;;;;;;5054222;28;20135;-70
2022/03/06 11:09:16;;;;;;;7.95;1.25;;;15.80;55.10;;;;;;5057539;28;20416;-69
2022/03/06 11:11:46;;;;;;;2.75;0.60;;;15.70;55.10;;;;;;5055016;28;20331;-70
2022/03/06 11:14:12;;;;;;;3.83;0.50;;;15.70;55.00;;;;;;5058038;28;20060;-70
2022/03/06 11:16:40;;;;;;;3.30;0.80;;;15.70;55.00;;;;;;5075339;28;20061;-70
2022/03/06 11:19:08;;;;;;;3.90;0.80;;;15.70;55.00;;;;;;5077870;28;20381;-70
2022/03/06 11:21:36;;;;;;;6.90;1.20;;;15.60;55.00;;;;;;5077418;28;20071;-71
2022/03/06 11:24:19;;;;;;;2.63;0.40;;;15.60;54.90;;;;;;5077631;28;20087;-70
2022/03/06 11:27:09;;;;;;;2.08;0.40;;;15.60;55.00;;;;;;5077430;28;20052;-69
2022/03/06 11:29:53;;;;;;;2.05;0.60;;;15.60;55.00;;;;;;5059707;28;20048;-71
2022/03/06 11:32:25;;;;;;;4.18;0.80;;;15.60;55.00;;;;;;5077264;28;20040;-70
2022/03/06 11:34:58;;;;;;;2.58;0.57;;;15.60;54.90;;;;;;5077233;28;20080;-70
2022/03/06 11:37:28;;;;;;;6.53;0.90;;;15.50;54.80;;;;;;5077300;28;20040;-70
2022/03/06 11:39:55;;;;;;;4.80;0.75;;;15.50;54.90;;;;;;5058650;28;20048;-70
2022/03/06 11:42:48;;;;;;;3.97;0.77;;;15.50;55.00;;;;;;5077445;28;20044;-69
2022/03/06 11:45:44;;;;;;;1.83;0.50;;;15.50;55.10;;;;;;5067882;28;20041;-70
2022/03/06 11:48:11;;;;;;;2.72;0.55;;;15.40;55.10;;;;;;5057330;28;20138;-70
2022/03/06 11:50:37;;;;;;;2.90;0.32;;;15.40;55.00;;;;;;5039458;28;20053;-70
2022/03/06 11:53:20;;;;;;;3.38;0.73;;;15.40;55.00;;;;;;5039037;28;20114;-70
2022/03/06 11:55:45;;;;;;;2.88;0.50;;;15.40;55.10;;;;;;5056529;28;20041;-70
2022/03/06 11:58:11;;;;;;;2.33;0.40;;;15.40;55.10;;;;;;5056713;28;20056;-71
2022/03/06 12:00:37;;;;;;;4.18;0.60;;;15.30;54.90;;;;;;5055834;28;20063;-70
2022/03/06 12:03:03;;;;;;;4.05;0.45;;;15.30;55.00;;;;;;5057521;28;20044;-70
2022/03/06 12:05:48;;;;;;;4.80;0.57;;;15.30;55.10;;;;;;5056404;28;20051;-70
2022/03/06 12:08:16;;;;;;;1.48;0.50;;;15.30;55.10;;;;;;5056613;28;20045;-70
2022/03/06 12:10:44;;;;;;;2.70;0.57;;;15.30;55.80;;;;;;5056662;28;20114;-70
2022/03/06 12:13:21;;;;;;;2.63;0.50;;;15.20;55.00;;;;;;5056165;28;20099;-70
2022/03/06 12:16:04;;;;;;;4.00;0.40;;;15.30;55.20;;;;;;5056106;28;20049;-69
2022/03/06 12:18:31;;;;;;;3.75;0.50;;;15.20;55.10;;;;;;5072279;28;20082;-70
2022/03/06 12:20:57;;;;;;;3.67;0.60;;;15.20;55.10;;;;;;5055784;28;20456;-69
2022/03/06 12:23:28;;;;;;;1.90;0.30;;;15.20;55.10;;;;;;5056338;28;20060;-71
2022/03/06 12:25:59;;;;;;;2.63;0.32;;;15.20;55.30;;;;;;5048420;28;20096;-70
2022/03/06 12:28:35;;;;;;;2.08;0.63;;;15.20;55.30;;;;;;5056745;28;20420;-69
2022/03/06 12:31:31;;;;;;;2.97;0.40;;;15.10;55.30;;;;;;5072059;28;20123;-69
2022/03/06 12:33:58;;;;;;;2.22;0.20;;;15.10;55.40;;;;;;5056165;28;20468;-70
2022/03/06 12:36:24;;;;;;;2.70;0.47;;;15.10;55.50;;;;;;5055696;28;20056;-70
2022/03/06 12:38:56;;;;;;;1.38;0.20;;;15.10;55.50;;;;;;5038606;28;20063;-70
2022/03/06 12:41:22;;;;;;;0.60;0.20;;;15.00;55.50;;;;;;5055912;28;20064;-71
2022/03/06 12:43:56;;;;;;;1.20;0.22;;;15.00;55.50;;;;;;5056298;28;20127;-69
2022/03/06 12:46:22;;;;;;;2.33;0.30;;;15.00;55.60;;;;;;5055987;28;20402;-70